首页
METAR-TAF:

METAR-TAF

机场 :

El Dorado, 阿肯色州, 美国

纬度: 33-13-15N, 经度: 092-48-48W, 海拔: 84米

当前天气观测

该预报发布于41分钟前的09:53 UTC
静风
温度 11°C
湿度 87%
气压 1016 hPa
能見度: 16.1公里
天空无云

METAR: KELD 020953Z AUTO 00000KT 10SM CLR 11/09 A3001 RMK AO2 SLP162 T01060094

时间: 05:34 (10:34 UTC)

预报

该预报发布于5小时和11分钟前的05:23 UTC
预报有效从02日的 06点(UTC)到 03日的 06点(UTC)
风速3节,风向东转东南
能見度: 10公里
散云层高于15000英尺
多云层高于25000英尺
从 02日的 1500点(UTC)
风速7节,风向东南
能見度: 10公里
散云层高于15000英尺
多云层高于25000英尺
从 03日的 0000点(UTC)
风速6节,风向东南
能見度: 10公里
多云层高于14000英尺
阴天层高于25000英尺

TAF: KELD 020523Z 0206/0306 12003KT P6SM SCT150 BKN250 FM021500 13007KT P6SM SCT150 BKN250 FM030000 14006KT P6SM BKN140 OVC250

超过4000个机场的气象观测和天气预报(METAR&TAF报告)。

可查询的气象台以黄色和红色小点在地图上表示。

将鼠标移到小点上方,可查看气象台名称。

然后点击查看天气观测和预报。

如需切换地图:点击带黑十字的绿色按钮放大地图;点击带横线的绿色按钮缩小地图;或者点击绿色箭头查看邻近地区的地图。


METAR-TAF: